ADDS METAR Data INFO
IDs: Format: Raw Decoded Include TAF

Data at: 0904 UTC 20 Oct 2017

KAMN 200850Z AUTO 00000KT 10SM CLR 05/03 A3019 RMK AO2 T00460025
KAMN 200830Z AUTO 00000KT 10SM CLR 04/02 A3019 RMK AO2 T00410017
KAMN 200810Z AUTO 00000KT 10SM CLR 03/01 A3019 RMK AO2 T00310014
KAMN 200755Z AUTO 00000KT 10SM CLR 05/02 A3020 RMK AO2 T00520022
KAMN 200734Z AUTO 00000KT 10SM CLR 06/03 A3019 RMK AO2 T00570028
KAMN 200713Z AUTO 12003KT 10SM CLR 05/03 A3019 RMK AO2 T00520028
KAMN 200653Z AUTO 12003KT 10SM CLR 05/02 A3020 RMK AO2 T00500024
KAMN 200633Z AUTO 00000KT 10SM CLR 05/03 A3020 RMK AO2 T00480025
KAMN 200613Z AUTO 12003KT 10SM CLR 05/02 A3019 RMK AO2 T00490024
KAMN 200553Z AUTO 00000KT 10SM CLR 05/02 A3019 RMK AO2 T00450023
KAMN 200533Z AUTO 12005KT 10SM CLR 06/03 A3019 RMK AO2 T00580029
KAMN 200513Z AUTO 14003KT 10SM CLR 05/02 A3019 RMK AO2 T00500024
KAMN 200453Z AUTO 11005KT 10SM CLR 05/02 A3019 RMK AO2 T00500023
KAMN 200433Z AUTO 12004KT 10SM CLR 07/02 A3019 RMK AO2 T00650015
KAMN 200413Z AUTO 00000KT 10SM CLR 07/01 A3018 RMK AO2 T00700013
KAMN 200353Z AUTO 24004KT 10SM CLR 08/01 A3018 RMK AO2 T00840011
KAMN 200333Z AUTO 24005KT 10SM CLR 09/01 A3019 RMK AO2 T00870009
KAMN 200313Z AUTO 24004KT 10SM CLR 09/00 A3018 RMK AO2 T00910003
KAMN 200253Z AUTO 24005KT 10SM CLR 09/00 A3018 RMK AO2 T00910002
KAMN 200233Z AUTO 24005KT 10SM CLR 10/00 A3018 RMK AO2 T00990000
KAMN 200213Z AUTO 25005KT 10SM CLR 10/00 A3017 RMK AO2 T01030000
KAMN 200153Z AUTO 25006KT 10SM CLR 11/00 A3017 RMK AO2 T01050000
KAMN 200133Z AUTO 25006KT 10SM CLR 10/00 A3017 RMK AO2 T01001001
KAMN 200112Z AUTO 25008KT 10SM CLR 08/00 A3016 RMK AO2 T00750002
KAMN 200052Z AUTO 26010KT 10SM CLR 08/00 A3016 RMK AO2 T00770001
KAMN 200032Z AUTO 26009KT 10SM CLR 08/00 A3016 RMK AO2 T00840000
KAMN 200012Z AUTO 26009KT 10SM CLR 09/00 A3016 RMK AO2 T00940000
KAMN 192351Z AUTO 26010KT 10SM CLR 11/M02 A3015 RMK AO2 T01141024
KAMN 192331Z AUTO 25006KT 10SM CLR 14/M05 A3015 RMK AO2 T01351046
KAMN 192311Z AUTO 23008KT 110V320 10SM CLR 14/M05 A3014 RMK AO2 T01411050
KAMN 192251Z AUTO 27006KT 10SM CLR 15/M05 A3014 RMK AO2 T01541055
KAMN 192231Z AUTO 26012KT 10SM CLR 17/M06 A3013 RMK AO2 T01661063
KAMN 192211Z AUTO 27014G18KT 10SM CLR 17/M07 A3013 RMK AO2 T01731070
KAMN 192151Z AUTO 26013G17KT 10SM CLR 18/M07 A3012 RMK AO2 T01801070
KAMN 192130Z AUTO 26014G18KT 10SM CLR 18/M08 A3012 RMK AO2 T01831080
KAMN 192110Z AUTO 26013G17KT 10SM CLR 18/M09 A3011 RMK AO2 T01841088
KAMN 192050Z AUTO 27012G17KT 10SM CLR 18/M08 A3011 RMK AO2 T01841081
KAMN 192030Z AUTO 26014G20KT 10SM CLR 19/M08 A3012 RMK AO2 T01871081
KAMN 192010Z AUTO 28015G18KT 10SM CLR 19/M08 A3011 RMK AO2 T01931078
KAMN 191950Z AUTO 27013G19KT 10SM CLR 19/M09 A3011 RMK AO2 T01921092
KAMN 191930Z AUTO 26014G19KT 10SM CLR 19/M05 A3010 RMK AO2 T01921055
KAMN 191910Z AUTO 25011G17KT 10SM CLR 19/M05 A3011 RMK AO2 T01941054
KAMN 191855Z AUTO 28013G21KT 10SM CLR 19/M06 A3011 RMK AO2 T01921059
KAMN 191835Z AUTO 28014G21KT 10SM CLR 19/M08 A3011 RMK AO2 T01901078
KAMN 191800Z AUTO 27013G19KT 10SM CLR 19/M06 A3011 RMK AO2 T01891060
KAMN 191734Z AUTO 27013G18KT 10SM CLR 19/M05 A3011 RMK AO2 T01851055
KAMN 191714Z AUTO 28015G19KT 10SM CLR 19/M04 A3012 RMK AO2 T01851042
KAMN 191654Z AUTO 27014G20KT 10SM CLR 18/M04 A3012 RMK AO2 T01831036
KAMN 191634Z AUTO 27013KT 10SM CLR 18/M04 A3012 RMK AO2 T01801040
KAMN 191614Z AUTO 26013KT 10SM CLR 18/M02 A3011 RMK AO2 T01751017
KAMN 191554Z AUTO 26012G18KT 10SM CLR 17/M01 A3011 RMK AO2 T01691011
KAMN 191534Z AUTO 27014G18KT 10SM CLR 17/00 A3011 RMK AO2 T01670003
KAMN 191514Z AUTO 27011G16KT 10SM CLR 16/02 A3010 RMK AO2 T01600023
KAMN 191454Z AUTO 28014G20KT 10SM CLR 15/03 A3010 RMK AO2 T01530032
KAMN 191434Z AUTO 30015G20KT 10SM CLR 15/04 A3009 RMK AO2 T01480042
KAMN 191414Z AUTO 28013G17KT 10SM CLR 14/07 A3009 RMK AO2 T01440065
KAMN 191354Z AUTO 27011G14KT 10SM CLR 14/08 A3008 RMK AO2 T01370080
KAMN 191333Z AUTO 27007KT 10SM CLR 13/09 A3008 RMK AO2 T01300085
KAMN 191313Z AUTO 26007KT 10SM CLR 12/09 A3006 RMK AO2 T01230091
KAMN 191253Z AUTO 25007KT 10SM CLR 12/09 A3005 RMK AO2 T01180088
KAMN 191233Z AUTO 24009KT 10SM CLR 12/09 A3003 RMK AO2 T01150085
KAMN 191213Z AUTO 24011KT 10SM CLR 12/08 A3003 RMK AO2 T01150083
KAMN 191153Z AUTO 23009KT 180V240 10SM CLR 11/08 A3001 RMK AO2 T01130080
KAMN 191133Z AUTO 21010G14KT 190V250 10SM CLR 12/08 A3001 RMK AO2 T01160080
KAMN 191113Z AUTO 25010G14KT 10SM CLR 12/08 A3001 RMK AO2 T01200079
KAMN 191053Z AUTO 24010KT 10SM CLR 12/08 A3000 RMK AO2 T01210075
KAMN 191033Z AUTO 24010KT 10SM CLR 12/07 A2999 RMK AO2 T01240070
KAMN 191013Z AUTO 24011KT 10SM CLR 13/07 A2999 RMK AO2 T01260068
KAMN 190951Z AUTO 24012G16KT 10SM CLR 13/07 A2998 RMK AO2 T01300065
KAMN 190931Z AUTO 24012G17KT 10SM CLR 13/06 A2998 RMK AO2 T01300063
KAMN 190911Z AUTO 23012KT 10SM CLR 13/06 A2997 RMK AO2 T01310061
KAMN 190850Z AUTO 23010KT 10SM CLR 13/06 A2997 RMK AO2 T01300060
KAMN 190830Z AUTO 22012G15KT 10SM CLR 13/06 A2997 RMK AO2 T01300060
KAMN 190810Z AUTO 22009G16KT 10SM CLR 13/06 A2997 RMK AO2 T01260058
KAMN 190750Z AUTO 23011G15KT 10SM CLR 13/06 A2998 RMK AO2 T01250056
KAMN 190730Z AUTO 22010G16KT 180V240 10SM CLR 12/06 A2999 RMK AO2 T01230056
KAMN 190710Z AUTO 20009G14KT 160V240 10SM CLR 12/06 A2999 RMK AO2 T01200055
KAMN 190653Z AUTO 21008KT 170V240 10SM CLR 12/05 A2999 RMK AO2 T01200052
KAMN 190633Z AUTO 21008KT 160V240 10SM CLR 12/05 A2999 RMK AO2 T01200051
KAMN 190613Z AUTO 19005G14KT 10SM CLR 12/05 A2999 RMK AO2 T01210050
KAMN 190553Z AUTO 21009G14KT 160V240 10SM CLR 12/05 A3000 RMK AO2 T01240048
KAMN 190532Z AUTO 21011G17KT 10SM CLR 13/05 A3001 RMK AO2 T01250047
KAMN 190512Z AUTO 21011G16KT 180V240 10SM CLR 13/05 A3001 RMK AO2 T01260045
KAMN 190452Z AUTO 22010G16KT 180V240 10SM CLR 13/05 A3002 RMK AO2 T01250045
KAMN 190433Z AUTO 20010KT 180V240 10SM CLR 12/04 A3003 RMK AO2 T01240043
KAMN 190413Z AUTO 21008KT 170V240 10SM CLR 13/04 A3003 RMK AO2 T01250041
KAMN 190352Z AUTO 20009G15KT 160V240 10SM CLR 13/04 A3003 RMK AO2 T01250040
KAMN 190332Z AUTO 19007KT 160V230 10SM CLR 12/04 A3003 RMK AO2 T01230040
KAMN 190312Z AUTO 18006KT 10SM CLR 13/04 A3004 RMK AO2 T01250037
KAMN 190252Z AUTO 21007KT 10SM CLR 13/04 A3005 RMK AO2 T01290035
KAMN 190232Z AUTO 19009G14KT 10SM CLR 13/03 A3004 RMK AO2 T01330034
KAMN 190212Z AUTO 20009G15KT 10SM CLR 14/03 A3004 RMK AO2 T01350032
KAMN 190152Z AUTO 19010KT 10SM CLR 14/03 A3004 RMK AO2 T01360031
KAMN 190132Z AUTO 19007G14KT 10SM CLR 14/03 A3004 RMK AO2 T01350033
KAMN 190112Z AUTO 19010G14KT 10SM CLR 14/03 A3004 RMK AO2 T01370031
KAMN 190052Z AUTO 20012G15KT 10SM CLR 14/03 A3004 RMK AO2 T01430028
KAMN 190032Z AUTO 20011G16KT 10SM CLR 15/02 A3004 RMK AO2 T01480024
KAMN 190012Z AUTO 20011G16KT 150V210 10SM CLR 15/03 A3004 RMK AO2 T01460025
KAMN 182351Z AUTO 20010G17KT 130V210 10SM CLR 15/02 A3004 RMK AO2 T01530020
KAMN 182331Z AUTO 20011G16KT 10SM CLR 16/02 A3004 RMK AO2 T01600017
KAMN 182311Z AUTO 20011G17KT 10SM CLR 17/02 A3004 RMK AO2 T01650015
KAMN 182251Z AUTO 20011G17KT 10SM CLR 17/02 A3004 RMK AO2 T01670019
KAMN 182231Z AUTO 20008G17KT 10SM CLR 18/01 A3004 RMK AO2 T01760012
KAMN 182211Z AUTO 20012G17KT 10SM CLR 19/01 A3004 RMK AO2 T01850005
KAMN 182151Z AUTO 21013G18KT 10SM CLR 19/00 A3004 RMK AO2 T01920002
KAMN 182131Z AUTO 21012G17KT 10SM CLR 20/00 A3005 RMK AO2 T01961001
KAMN 182111Z AUTO 21015G23KT 10SM CLR 20/00 A3005 RMK AO2 T02001001